Time;durP1;ratioP1;P1;durP2;ratioP2;P2;SDS_P1;SDS_P2;PMS_P1;PMS_P2;Temp;Humidity;BMP_temperature;BMP_pressure;BME280_temperature;BME280_humidity;BME280_pressure;Samples;Min_cycle;Max_cycle;Signal;HPM_P1;HPM_P2
2022/09/10 00:11:50;;;;;;;2.53;1.63;;;;;;;22.48;52.67;100798.16;5459190;23;20057;-77
2022/09/10 00:14:22;;;;;;;2.75;1.60;;;;;;;22.48;52.78;100806.00;4847598;29;20049;-78
2022/09/10 00:16:48;;;;;;;3.03;1.42;;;;;;;22.49;52.65;100812.97;4868692;29;20064;-78
2022/09/10 00:21:39;;;;;;;3.50;1.58;;;;;;;22.49;52.86;100818.19;4867212;29;20061;-77
2022/09/10 00:24:05;;;;;;;2.70;1.55;;;;;;;22.49;52.63;100817.34;4868867;29;20867;-77
2022/09/10 00:26:37;;;;;;;2.65;1.45;;;;;;;22.50;52.58;100813.84;4851225;29;20078;-77
2022/09/10 00:29:03;;;;;;;3.17;1.50;;;;;;;22.48;52.68;100816.50;4868457;29;20041;-78
2022/09/10 00:31:30;;;;;;;2.50;1.30;;;;;;;22.49;52.86;100812.09;4865844;29;20140;-77
2022/09/10 00:33:57;;;;;;;3.33;1.75;;;;;;;22.48;52.45;100819.13;4867612;29;20088;-77
2022/09/10 00:36:28;;;;;;;3.03;1.55;;;;;;;22.48;52.72;100811.25;4851543;29;20057;-78
2022/09/10 00:38:59;;;;;;;2.13;1.30;;;;;;;22.48;52.60;100819.13;4868469;29;20045;-78
2022/09/10 00:41:25;;;;;;;2.08;1.30;;;;;;;22.49;52.69;100818.19;4863721;29;20080;-77
2022/09/10 00:44:01;;;;;;;1.88;1.38;;;;;;;22.48;52.54;100815.66;4867633;29;20048;-78
2022/09/10 00:46:29;;;;;;;3.63;1.48;;;;;;;22.49;52.62;100812.09;4865734;29;20057;-77
2022/09/10 00:48:57;;;;;;;2.40;1.20;;;;;;;22.49;52.72;100809.50;4867425;29;20056;-78
2022/09/10 00:51:25;;;;;;;2.13;1.27;;;;;;;22.48;52.63;100808.63;4865358;29;20057;-77
2022/09/10 00:53:52;;;;;;;3.03;1.48;;;;;;;22.48;52.83;100806.00;4850463;29;20112;-77
2022/09/10 00:56:17;;;;;;;2.67;1.20;;;;;;;22.49;52.65;100802.47;4861204;29;20063;-77
2022/09/10 00:58:45;;;;;;;2.40;1.27;;;;;;;22.48;52.86;100800.78;4837588;29;20075;-77
2022/09/10 01:01:10;;;;;;;2.20;1.20;;;;;;;22.49;52.87;100796.38;4831693;29;20056;-77
2022/09/10 01:03:37;;;;;;;1.55;1.10;;;;;;;22.48;52.75;100795.53;4827914;29;20053;-77
2022/09/10 01:06:04;;;;;;;2.00;1.25;;;;;;;22.49;52.68;100791.13;4816115;29;20084;-78
2022/09/10 01:08:30;;;;;;;2.28;1.15;;;;;;;22.50;52.61;100792.88;4872388;29;20497;-76
2022/09/10 01:13:56;;;;;;;2.38;1.30;;;;;;;22.49;52.86;100801.63;4859928;29;20156;-77
2022/09/10 01:16:34;;;;;;;2.08;1.20;;;;;;;22.47;52.62;100798.19;4843923;29;20057;-79
2022/09/10 01:21:55;;;;;;;2.45;1.30;;;;;;;22.49;52.75;100799.00;4871165;29;20742;-78
2022/09/10 01:24:51;;;;;;;1.77;1.10;;;;;;;22.49;52.77;100796.38;4826136;29;1093359;-78
2022/09/10 01:27:47;;;;;;;2.65;1.10;;;;;;;22.47;52.81;100798.19;4864207;29;20068;-78
2022/09/10 01:32:50;;;;;;;2.42;1.30;;;;;;;22.48;52.83;100800.78;4872533;29;20045;-79
2022/09/10 01:35:21;;;;;;;2.15;1.20;;;;;;;22.47;52.83;100804.31;4867089;29;20056;-78
2022/09/10 01:37:53;;;;;;;2.22;0.90;;;;;;;22.47;52.76;100799.06;4868212;29;20056;-77
2022/09/10 01:40:23;;;;;;;1.98;1.13;;;;;;;22.47;52.64;100798.19;4833898;29;20046;-78
2022/09/10 01:42:49;;;;;;;1.67;1.05;;;;;;;22.49;52.91;100796.38;4848757;29;20386;-78
2022/09/10 01:48:07;;;;;;;1.60;1.00;;;;;;;22.47;52.78;100801.69;4883799;29;20057;-79
2022/09/10 01:50:57;;;;;;;2.33;1.10;;;;;;;22.46;52.77;100802.56;4865484;29;20080;-78
2022/09/10 01:53:23;;;;;;;2.80;1.10;;;;;;;22.47;52.58;100804.31;4857914;29;20060;-78
2022/09/10 01:56:10;;;;;;;1.25;0.93;;;;;;;22.48;52.58;100806.00;4859802;29;20396;-78
2022/09/10 01:58:40;;;;;;;2.40;1.23;;;;;;;22.47;52.62;100806.94;4882187;29;20065;-78
2022/09/10 02:03:42;;;;;;;1.60;0.90;;;;;;;22.46;52.79;100799.94;4881611;29;20052;-78
2022/09/10 02:06:12;;;;;;;1.80;0.90;;;;;;;22.46;52.55;100797.34;4848373;29;20148;-77
2022/09/10 02:08:41;;;;;;;1.88;1.02;;;;;;;22.46;52.66;100791.25;4830721;29;20776;-78
2022/09/10 02:11:10;;;;;;;3.40;1.17;;;;;;;22.46;52.75;100794.72;4863504;29;20511;-78
2022/09/10 02:13:36;;;;;;;2.85;1.10;;;;;;;22.46;52.58;100791.25;4860382;29;20069;-78
2022/09/10 02:16:07;;;;;;;2.90;0.85;;;;;;;22.45;52.73;100790.38;4849414;29;20504;-78
2022/09/10 02:18:33;;;;;;;1.92;1.00;;;;;;;22.46;52.79;100799.09;4829772;29;20062;-78
2022/09/10 02:21:02;;;;;;;2.33;1.00;;;;;;;22.45;52.76;100805.22;4863628;29;20054;-78
2022/09/10 02:23:34;;;;;;;1.60;1.00;;;;;;;22.46;52.78;100806.97;4861069;29;20057;-78
2022/09/10 02:25:59;;;;;;;1.63;1.10;;;;;;;22.45;52.82;100808.75;4864805;29;20121;-78
2022/09/10 02:28:25;;;;;;;2.20;1.08;;;;;;;22.44;52.81;100799.16;4847122;29;20309;-79
2022/09/10 02:30:51;;;;;;;1.95;0.90;;;;;;;22.45;52.75;100792.13;4843255;29;20057;-78
2022/09/10 02:33:17;;;;;;;2.38;1.15;;;;;;;22.45;52.87;100790.38;4839650;29;20053;-78
2022/09/10 02:35:42;;;;;;;1.38;0.93;;;;;;;22.45;52.45;100794.75;4850881;29;20058;-78
2022/09/10 02:38:08;;;;;;;1.42;1.00;;;;;;;22.44;52.74;100796.53;4840847;29;20597;-78
2022/09/10 02:40:33;;;;;;;1.73;1.05;;;;;;;22.44;52.66;100793.91;4844751;29;20049;-78
2022/09/10 02:42:59;;;;;;;0.93;0.77;;;;;;;22.44;52.52;100790.41;4853959;29;20053;-77
2022/09/10 02:45:25;;;;;;;1.92;0.90;;;;;;;22.44;53.15;100791.28;4852072;29;20049;-78
2022/09/10 02:47:50;;;;;;;1.52;0.88;;;;;;;22.44;52.57;100793.03;4867468;29;20056;-84
2022/09/10 02:50:16;;;;;;;1.27;0.80;;;;;;;22.44;52.54;100793.03;4855310;29;20141;-82
2022/09/10 02:52:45;;;;;;;1.00;0.77;;;;;;;22.44;52.84;100787.81;4885154;29;20041;-84
2022/09/10 02:55:11;;;;;;;1.70;1.08;;;;;;;22.43;52.65;100789.56;4886017;29;20060;-84
2022/09/10 02:57:38;;;;;;;1.52;0.80;;;;;;;22.44;52.87;100786.03;4884248;29;20097;-84
2022/09/10 03:00:05;;;;;;;1.25;0.90;;;;;;;22.43;52.79;100791.31;4885810;29;20045;-84
2022/09/10 03:02:31;;;;;;;1.42;0.80;;;;;;;22.43;52.85;100788.69;4883515;29;20029;-84
2022/09/10 03:04:59;;;;;;;1.83;0.90;;;;;;;22.43;52.52;100786.94;4885813;29;20056;-84
2022/09/10 03:07:25;;;;;;;1.73;0.93;;;;;;;22.43;52.73;100799.19;4860430;29;20041;-85
2022/09/10 03:09:51;;;;;;;1.52;0.93;;;;;;;22.43;52.48;100793.94;4885797;29;20125;-85
2022/09/10 03:12:20;;;;;;;1.23;0.80;;;;;;;22.42;52.69;100790.47;4885445;29;20048;-83
2022/09/10 03:14:46;;;;;;;1.20;0.90;;;;;;;22.43;52.73;100786.06;4885137;29;20039;-84
2022/09/10 03:56:02;;;;;;;1.20;0.80;;;;;;;22.41;52.77;100788.75;5123815;23;20056;-85
2022/09/10 03:58:28;;;;;;;1.58;1.00;;;;;;;22.42;52.75;100790.47;4901038;29;20033;-85
2022/09/10 04:00:56;;;;;;;1.67;0.70;;;;;;;22.42;52.47;100792.22;4903208;29;20100;-84
2022/09/10 04:03:22;;;;;;;1.92;0.95;;;;;;;22.41;52.56;100798.38;4867779;29;20054;-83
2022/09/10 04:05:48;;;;;;;1.17;0.85;;;;;;;22.42;52.42;100800.94;4888506;29;20077;-83
2022/09/10 04:08:13;;;;;;;1.25;0.70;;;;;;;22.41;52.64;100806.22;4880697;29;20393;-78
2022/09/10 04:10:40;;;;;;;1.30;0.80;;;;;;;22.41;52.62;100801.88;4862619;29;20495;-77
2022/09/10 04:13:05;;;;;;;1.10;0.68;;;;;;;22.41;52.74;100803.59;4848386;29;20064;-77
2022/09/10 04:37:10;;;;;;;0.73;0.50;;;;;;;22.38;52.36;100823.81;5396812;23;20041;-85
2022/09/10 04:55:07;;;;;;;1.88;0.80;;;;;;;22.38;52.73;100830.78;5841900;23;20037;-80
2022/09/10 04:57:32;;;;;;;1.10;0.95;;;;;;;22.38;52.65;100836.03;4838109;29;20065;-79
2022/09/10 04:59:57;;;;;;;3.38;0.60;;;;;;;22.37;52.54;100835.19;4893818;29;20052;-80
2022/09/10 05:02:23;;;;;;;1.00;0.57;;;;;;;22.38;52.80;100834.28;4899980;29;20083;-79
2022/09/10 05:04:49;;;;;;;1.45;0.77;;;;;;;22.38;52.57;100834.28;4901432;29;20136;-79
2022/09/10 05:07:15;;;;;;;1.73;0.90;;;;;;;22.38;52.66;100836.03;4868223;29;20048;-78
2022/09/10 05:09:40;;;;;;;1.00;0.60;;;;;;;22.38;52.61;100841.28;4875358;29;20045;-79
2022/09/10 05:12:05;;;;;;;1.70;0.70;;;;;;;22.38;52.65;100836.03;4893287;29;20068;-78
2022/09/10 05:14:32;;;;;;;1.13;0.70;;;;;;;22.36;52.49;100840.44;4886432;29;20112;-78
2022/09/10 05:16:58;;;;;;;1.30;0.80;;;;;;;22.38;52.42;100843.91;4869995;29;20063;-79
2022/09/10 05:19:24;;;;;;;1.45;0.75;;;;;;;22.38;52.91;100849.13;4868140;29;20112;-78
2022/09/10 05:21:51;;;;;;;2.33;0.70;;;;;;;22.37;52.57;100847.44;4884701;29;20052;-78
2022/09/10 05:24:16;;;;;;;0.70;0.50;;;;;;;22.37;52.51;100850.06;4883999;29;20083;-78
2022/09/10 05:26:45;;;;;;;0.75;0.70;;;;;;;22.37;52.52;100850.06;4899428;29;20057;-78
2022/09/10 05:29:11;;;;;;;1.23;0.68;;;;;;;22.36;52.95;100849.22;4866621;29;20071;-78
2022/09/10 05:31:36;;;;;;;1.55;0.68;;;;;;;22.37;52.71;100855.31;4868102;29;20155;-78
2022/09/10 05:34:02;;;;;;;2.83;0.70;;;;;;;22.36;52.84;100859.69;4872518;29;20542;-78
2022/09/10 05:36:28;;;;;;;0.77;0.60;;;;;;;22.37;52.63;100864.03;4901234;29;20056;-78
2022/09/10 05:38:56;;;;;;;1.50;0.65;;;;;;;22.37;52.83;100860.53;4885469;29;20063;-79
2022/09/10 05:41:23;;;;;;;1.02;0.60;;;;;;;22.36;52.72;100864.94;4851500;29;20548;-78
2022/09/10 05:43:50;;;;;;;1.63;0.70;;;;;;;22.36;52.72;100864.06;4867838;29;20061;-77
2022/09/10 05:48:43;;;;;;;0.68;0.55;;;;;;;22.36;52.59;100875.44;4881851;29;20109;-78
2022/09/10 05:53:40;;;;;;;0.90;0.55;;;;;;;22.37;52.83;100865.78;4882631;29;21260;-78
2022/09/10 05:56:06;;;;;;;1.17;0.80;;;;;;;22.36;52.56;100872.81;4884616;29;20135;-78
2022/09/10 05:58:33;;;;;;;3.60;0.80;;;;;;;22.36;52.64;100869.28;4865415;29;20508;-80
2022/09/10 06:00:59;;;;;;;2.42;0.60;;;;;;;22.37;52.64;100871.03;4883237;29;20061;-79
2022/09/10 06:03:24;;;;;;;1.35;0.75;;;;;;;22.37;52.47;100876.28;4848974;29;20056;-77
2022/09/10 06:05:52;;;;;;;1.20;0.80;;;;;;;22.37;52.64;100877.13;4850955;29;20531;-77
2022/09/10 06:08:20;;;;;;;2.78;0.70;;;;;;;22.38;52.56;100884.09;4859853;29;20053;-76
2022/09/10 06:11:00;;;;;;;3.35;0.60;;;;;;;22.38;52.71;100886.72;4879020;29;20045;-77
2022/09/10 06:13:26;;;;;;;3.22;0.70;;;;;;;22.40;52.69;100891.91;4862443;29;20523;-76
2022/09/10 06:15:52;;;;;;;3.45;0.60;;;;;;;22.42;52.70;100897.97;4850533;29;20053;-78
2022/09/10 06:18:18;;;;;;;4.68;0.60;;;;;;;22.42;52.55;100892.72;4833185;29;20055;-77
2022/09/10 06:20:43;;;;;;;1.77;0.95;;;;;;;22.45;52.39;100894.38;4848867;29;20057;-78
2022/09/10 06:23:09;;;;;;;1.20;0.77;;;;;;;22.45;52.47;100899.63;4815714;29;20057;-77
2022/09/10 06:25:34;;;;;;;1.13;0.60;;;;;;;22.50;52.69;100900.38;4830064;29;20113;-77
2022/09/10 06:28:00;;;;;;;0.60;0.50;;;;;;;22.52;52.40;100909.91;4848623;29;20120;-77
2022/09/10 06:30:27;;;;;;;1.27;0.63;;;;;;;22.51;52.30;100915.19;4847636;29;20083;-77
2022/09/10 06:32:52;;;;;;;3.15;0.90;;;;;;;22.49;52.20;100911.75;4854953;29;20144;-77
2022/09/10 06:35:18;;;;;;;1.38;0.65;;;;;;;22.49;52.36;100917.00;4868735;29;20524;-77
2022/09/10 06:37:44;;;;;;;0.82;0.68;;;;;;;22.47;52.23;100919.69;4868355;29;20067;-80
2022/09/10 06:40:09;;;;;;;1.38;0.73;;;;;;;22.46;52.52;100924.97;4839768;29;20104;-77
2022/09/10 06:42:34;;;;;;;1.40;0.80;;;;;;;22.46;52.49;100923.19;4866931;29;20080;-77
2022/09/10 06:45:00;;;;;;;2.10;0.80;;;;;;;22.46;52.42;100930.22;4850145;29;20057;-77
2022/09/10 06:47:25;;;;;;;1.20;0.60;;;;;;;22.45;52.65;100933.72;4826519;29;20081;-77
2022/09/10 06:51:56;;;;;;;1.70;1.10;;;;;;;22.45;52.27;100937.22;5139943;27;20131;-77
2022/09/10 06:54:22;;;;;;;1.67;0.80;;;;;;;22.45;52.37;100944.22;5074586;28;20105;-79
2022/09/10 06:56:48;;;;;;;1.30;0.65;;;;;;;22.44;52.20;100947.75;5054145;28;20053;-77
2022/09/10 06:59:13;;;;;;;1.08;0.70;;;;;;;22.45;52.43;100952.97;5071801;28;20052;-77
2022/09/10 07:01:40;;;;;;;1.25;0.70;;;;;;;22.47;52.36;100958.16;5054844;28;20438;-77
2022/09/10 07:04:07;;;;;;;1.42;0.80;;;;;;;22.46;52.45;100957.28;5066613;28;20052;-79
2022/09/10 07:06:34;;;;;;;0.93;0.68;;;;;;;22.47;52.35;100963.38;5068244;28;20049;-77
2022/09/10 07:09:00;;;;;;;1.27;0.80;;;;;;;22.47;52.19;100969.50;5063334;28;20052;-77
2022/09/10 07:11:30;;;;;;;1.40;0.70;;;;;;;22.47;52.36;100971.25;5086494;28;20036;-77
2022/09/10 07:13:57;;;;;;;1.02;0.60;;;;;;;22.47;52.07;100971.25;5064653;28;20044;-79
2022/09/10 07:18:53;;;;;;;0.80;0.60;;;;;;;22.47;52.13;100982.63;5114270;28;20044;-78
2022/09/10 07:21:19;;;;;;;1.10;0.57;;;;;;;22.47;52.32;100985.25;5083674;28;20028;-79
2022/09/10 07:23:48;;;;;;;0.80;0.60;;;;;;;22.48;52.05;100986.94;5057437;28;20051;-79
2022/09/10 07:26:16;;;;;;;2.15;0.73;;;;;;;22.47;52.17;100982.63;5095258;28;20497;-79
2022/09/10 07:28:48;;;;;;;1.67;0.88;;;;;;;22.49;52.03;100990.44;5054744;28;20063;-78
2022/09/10 07:31:14;;;;;;;2.67;1.60;;;;;;;22.44;52.38;100992.34;5068558;28;20037;-80
2022/09/10 07:33:40;;;;;;;1.52;0.70;;;;;;;22.42;52.44;100992.38;5092065;28;20413;-80
2022/09/10 07:36:05;;;;;;;1.70;1.10;;;;;;;22.40;52.79;100991.53;5087198;28;20052;-81
2022/09/10 07:38:31;;;;;;;3.85;1.00;;;;;;;22.41;52.54;101000.25;5089567;28;20059;-80
2022/09/10 07:41:00;;;;;;;4.25;0.88;;;;;;;22.40;52.74;100996.78;5068143;28;20048;-80
2022/09/10 07:43:26;;;;;;;4.35;2.95;;;;;;;22.32;53.64;100998.75;5074202;28;20078;-80
2022/09/10 07:45:51;;;;;;;6.22;4.05;;;;;;;22.24;54.22;101005.97;5071563;28;21192;-80
2022/09/10 07:48:18;;;;;;;7.15;4.53;;;;;;;22.23;54.10;101010.34;5092870;28;20548;-80
2022/09/10 07:50:44;;;;;;;8.38;5.68;;;;;;;22.14;54.45;101008.78;5083690;28;20046;-81
2022/09/10 07:53:10;;;;;;;9.45;6.18;;;;;;;22.03;55.38;101015.22;5087355;28;20040;-79
2022/09/10 07:55:35;;;;;;;9.38;5.55;;;;;;;22.10;55.03;101014.16;5062985;28;20076;-80
2022/09/10 07:58:00;;;;;;;8.98;5.63;;;;;;;22.07;55.37;101022.94;5081630;28;20040;-80
2022/09/10 08:00:26;;;;;;;8.02;5.57;;;;;;;22.10;55.20;101027.25;5036532;28;20048;-78
2022/09/10 08:02:51;;;;;;;11.25;5.18;;;;;;;22.06;55.45;101023.88;5040171;28;20045;-78
2022/09/10 08:05:17;;;;;;;9.43;5.63;;;;;;;22.06;55.29;101038.72;5032700;28;20048;-80
2022/09/10 08:07:43;;;;;;;7.18;4.78;;;;;;;22.09;55.12;101036.03;5036898;28;21277;-79
2022/09/10 08:10:09;;;;;;;7.28;5.28;;;;;;;22.14;54.81;101037.63;5053983;28;20512;-80
2022/09/10 08:12:36;;;;;;;7.78;5.30;;;;;;;22.05;55.27;101043.09;5053080;28;20083;-81
2022/09/10 08:15:03;;;;;;;6.47;4.43;;;;;;;22.11;54.75;101045.56;5040552;28;20053;-79
2022/09/10 08:17:29;;;;;;;6.75;4.50;;;;;;;22.12;54.50;101049.03;5055158;28;20079;-78
2022/09/10 08:19:55;;;;;;;8.07;4.88;;;;;;;22.06;55.03;101057.94;5063173;28;20521;-79
2022/09/10 08:22:21;;;;;;;7.78;4.40;;;;;;;22.01;55.00;101058.94;5076096;28;20048;-81
2022/09/10 08:24:47;;;;;;;8.57;4.60;;;;;;;22.00;55.08;101063.31;5075052;28;20503;-80
2022/09/10 08:27:14;;;;;;;6.28;3.92;;;;;;;22.04;54.86;101064.97;5040884;28;20581;-79
2022/09/10 08:29:40;;;;;;;7.28;4.60;;;;;;;22.05;54.70;101076.31;5037601;28;20056;-79
2022/09/10 08:32:06;;;;;;;5.85;4.78;;;;;;;21.95;54.76;101083.53;5038463;28;20051;-79
2022/09/10 08:34:33;;;;;;;14.00;4.03;;;;;;;22.03;54.94;101078.09;5081628;28;20044;-79
2022/09/10 08:37:02;;;;;;;13.57;4.00;;;;;;;22.13;54.28;101080.47;5052772;28;20048;-79
2022/09/10 08:39:30;;;;;;;6.53;3.47;;;;;;;22.06;54.15;101078.91;5067827;28;20045;-78
2022/09/10 08:42:22;;;;;;;6.70;3.63;;;;;;;22.06;54.10;101080.63;5071327;28;20044;-78
2022/09/10 08:45:01;;;;;;;10.63;3.25;;;;;;;21.99;54.23;101087.78;5053995;28;20556;-80
2022/09/10 08:47:48;;;;;;;8.15;3.55;;;;;;;22.01;54.18;101093.00;5060265;28;20060;-79
2022/09/10 08:52:59;;;;;;;8.93;3.78;;;;;;;21.98;54.56;101099.19;5072693;28;20081;-79
2022/09/10 08:55:30;;;;;;;7.70;3.50;;;;;;;21.96;54.80;101111.47;5105714;28;20047;-79
2022/09/10 08:58:10;;;;;;;6.80;4.22;;;;;;;21.90;54.96;101114.22;5075241;28;20044;-80
2022/09/10 09:00:41;;;;;;;5.82;3.63;;;;;;;21.92;55.20;101117.66;5072473;28;20445;-79
2022/09/10 09:05:52;;;;;;;9.55;3.90;;;;;;;21.93;55.13;101129.88;5055226;28;20053;-79
2022/09/10 09:10:58;;;;;;;6.32;3.58;;;;;;;22.02;54.52;101128.81;5078281;28;20045;-80
2022/09/10 09:13:44;;;;;;;7.57;3.40;;;;;;;21.95;54.60;101133.34;5061520;28;20509;-80
2022/09/10 09:19:06;;;;;;;5.15;3.20;;;;;;;21.96;54.37;101137.66;5071827;28;20056;-79
2022/09/10 09:21:55;;;;;;;5.45;2.83;;;;;;;21.96;54.12;101138.50;5057215;28;20049;-80
2022/09/10 09:26:48;;;;;;;8.90;2.85;;;;;;;21.93;54.25;101141.22;5071922;28;20782;-79
2022/09/10 09:29:24;;;;;;;5.93;3.20;;;;;;;21.87;54.35;101143.97;5052969;28;20056;-79
2022/09/10 09:31:56;;;;;;;7.07;3.03;;;;;;;21.91;54.22;101150.03;5039971;28;20140;-81
2022/09/10 09:37:19;;;;;;;5.68;2.80;;;;;;;21.90;53.73;101154.38;5055716;28;20052;-79
2022/09/10 09:40:11;;;;;;;6.93;2.85;;;;;;;21.89;53.50;101157.91;5082208;28;20750;-80
2022/09/10 09:43:02;;;;;;;8.60;2.70;;;;;;;21.90;53.31;101164.00;5046058;28;20449;-79
2022/09/10 09:45:44;;;;;;;6.55;2.50;;;;;;;21.87;53.09;101161.47;5055536;28;20045;-81
2022/09/10 09:48:16;;;;;;;5.57;2.60;;;;;;;21.88;52.78;101161.41;5077885;28;20032;-80
2022/09/10 09:50:45;;;;;;;5.25;2.65;;;;;;;21.86;52.80;101176.31;5070976;28;20487;-81
2022/09/10 09:53:17;;;;;;;6.85;2.72;;;;;;;21.86;53.04;101173.69;5055575;28;20135;-78
2022/09/10 09:55:52;;;;;;;5.38;2.90;;;;;;;21.83;52.61;101172.91;5061589;28;20149;-80
2022/09/10 09:58:20;;;;;;;5.32;2.58;;;;;;;21.83;52.81;101172.91;5089790;28;20403;-80
2022/09/10 10:00:51;;;;;;;6.32;2.40;;;;;;;21.83;52.62;101178.13;5074167;28;20115;-80
2022/09/10 10:05:48;;;;;;;4.10;2.05;;;;;;;21.90;52.83;101172.72;5071726;28;20044;-79
2022/09/10 10:10:50;;;;;;;4.65;2.45;;;;;;;21.96;52.34;101176.97;5072119;28;20053;-79
2022/09/10 10:13:20;;;;;;;7.82;2.72;;;;;;;21.96;52.33;101183.06;5041850;28;20067;-79
2022/09/10 10:15:45;;;;;;;5.50;2.40;;;;;;;22.02;52.36;101183.84;5044696;28;20052;-81
2022/09/10 10:21:04;;;;;;;7.80;2.42;;;;;;;22.05;52.08;101189.00;5090901;28;20903;-81
2022/09/10 10:23:37;;;;;;;3.80;2.20;;;;;;;22.02;52.02;101194.31;5060455;28;20055;-80
2022/09/10 10:28:57;;;;;;;5.43;2.45;;;;;;;21.98;52.18;101202.22;5112399;28;20934;-80
2022/09/10 10:34:16;;;;;;;5.78;2.83;;;;;;;22.00;52.39;101206.59;5098708;28;20043;-80
2022/09/10 10:37:04;;;;;;;5.47;2.85;;;;;;;21.98;52.42;101199.63;5101404;28;20049;-81
2022/09/10 10:39:55;;;;;;;6.22;2.75;;;;;;;22.01;52.27;101203.06;5079385;28;20045;-80
2022/09/10 10:45:00;;;;;;;9.70;2.55;;;;;;;22.01;51.64;101209.16;5081845;28;20044;-81
2022/09/10 10:47:58;;;;;;;8.20;3.15;;;;;;;21.97;52.07;101211.00;5068541;28;20049;-80
2022/09/10 10:50:45;;;;;;;6.88;3.55;;;;;;;21.82;56.40;101210.47;5062107;28;20056;-81
2022/09/10 10:53:17;;;;;;;11.38;4.03;;;;;;;21.29;67.28;101221.94;5066274;28;20075;-80
2022/09/10 10:55:55;;;;;;;13.38;4.60;;;;;;;20.28;73.80;101221.03;5083797;28;21414;-81
2022/09/10 11:04:22;;;;;;;6.68;3.90;;;;;;;20.13;76.32;101232.53;5482344;23;20268;-81
2022/09/10 12:46:15;;;;;;;2.88;1.70;;;;;;;21.34;63.44;101297.81;4740927;28;8634200;-82
2022/09/10 12:49:11;;;;;;;4.18;2.00;;;;;;;21.37;63.00;101298.59;4967533;28;20257;-79
2022/09/10 12:52:00;;;;;;;2.65;1.70;;;;;;;21.42;63.27;101298.53;5009452;28;20076;-82
2022/09/10 12:55:07;;;;;;;2.65;1.75;;;;;;;21.45;62.74;101293.25;5035117;28;20058;-82
2022/09/10 12:58:01;;;;;;;2.33;1.55;;;;;;;21.52;62.06;101305.34;5022799;28;20078;-81
2022/09/10 13:00:47;;;;;;;3.25;1.85;;;;;;;21.55;61.88;101299.19;5044549;28;20049;-81
2022/09/10 13:06:54;;;;;;;3.13;1.80;;;;;;;21.59;61.52;101306.09;5016047;28;20050;-81
2022/09/10 13:09:31;;;;;;;3.28;1.75;;;;;;;21.59;62.24;101305.22;5007006;28;20058;-81
2022/09/10 13:29:11;;;;;;;2.70;1.58;;;;;;;21.73;61.16;101322.41;5010343;28;20097;-82
2022/09/10 13:31:44;;;;;;;;;;;;;;;21.76;60.36;101330.19;5024048;28;20136;-81
2022/09/10 13:34:16;;;;;;;2.65;1.60;;;;;;;21.83;60.86;101330.09;5008057;28;19921;-81
2022/09/10 13:39:25;;;;;;;2.25;1.42;;;;;;;21.81;60.94;101326.63;4992406;28;20055;-81
2022/09/10 13:41:58;;;;;;;2.40;1.60;;;;;;;21.80;60.62;101328.41;4983046;28;20146;-81
2022/09/10 13:45:02;;;;;;;3.38;1.55;;;;;;;21.86;60.66;101330.03;4978283;28;20100;-81
2022/09/10 13:47:39;;;;;;;4.28;1.60;;;;;;;21.88;60.45;101323.84;5004708;28;20061;-81
2022/09/10 13:52:50;;;;;;;;;;;;;;;21.97;59.16;101325.41;4966162;28;20095;-81
2022/09/10 13:57:46;;;;;;;3.33;1.55;;;;;;;22.01;59.51;101339.34;4964413;28;20047;-81
2022/09/10 14:02:55;;;;;;;2.50;1.50;;;;;;;22.05;59.16;101336.63;4991406;28;20973;-80
2022/09/10 14:05:32;;;;;;;2.72;1.60;;;;;;;22.08;58.87;101335.69;5001635;28;20049;-81
2022/09/10 14:08:13;;;;;;;2.95;1.70;;;;;;;22.07;59.00;101334.84;4994679;28;20054;-81
2022/09/10 14:11:17;;;;;;;3.28;1.80;;;;;;;22.11;58.69;101340.88;4984601;28;20054;-81
2022/09/10 14:14:08;;;;;;;2.88;1.67;;;;;;;22.14;58.55;101328.56;4979651;28;20050;-81
2022/09/10 14:16:42;;;;;;;3.00;1.80;;;;;;;22.15;58.27;101339.94;4972590;28;20523;-81
2022/09/10 14:19:17;;;;;;;2.92;1.52;;;;;;;22.21;57.86;101347.66;4973581;28;20070;-81
2022/09/10 14:21:47;;;;;;;2.25;1.45;;;;;;;22.24;57.73;101344.16;4979231;28;20410;-81
2022/09/10 14:29:24;;;;;;;3.60;1.90;;;;;;;22.29;57.28;101366.75;4999096;28;20058;-81
2022/09/10 14:31:49;;;;;;;3.72;1.60;;;;;;;22.31;57.01;101374.56;4991526;28;20055;-80
2022/09/10 14:36:48;;;;;;;;;;;;;;;22.39;56.31;101364.81;4994268;28;20710;-80
2022/09/10 14:39:19;;;;;;;2.13;1.45;;;;;;;22.45;55.83;101361.16;4973983;28;19930;-80
2022/09/10 14:41:45;;;;;;;5.97;1.55;;;;;;;22.48;55.59;101366.38;4993816;28;20065;-81
2022/09/10 14:44:21;;;;;;;3.25;1.40;;;;;;;22.47;55.72;101369.88;4971000;28;20073;-80
2022/09/10 14:47:11;;;;;;;3.53;1.38;;;;;;;22.47;55.88;101370.75;4969996;28;20051;-80
2022/09/10 14:49:40;;;;;;;2.22;1.42;;;;;;;22.52;55.50;101379.38;4973047;28;20062;-80
2022/09/10 14:52:06;;;;;;;2.30;1.40;;;;;;;22.53;55.54;101369.75;4978097;28;20082;-80
2022/09/10 14:54:33;;;;;;;2.75;1.30;;;;;;;22.55;55.54;101375.81;4969692;28;20050;-80
2022/09/10 14:57:12;;;;;;;2.13;1.20;;;;;;;22.54;55.08;101384.59;4989184;28;20074;-80
2022/09/10 14:59:40;;;;;;;2.30;1.35;;;;;;;22.55;55.30;101381.91;4991832;28;20026;-81
2022/09/10 15:02:12;;;;;;;2.97;1.30;;;;;;;22.57;54.78;101381.88;5001063;28;20066;-81
2022/09/10 15:04:38;;;;;;;2.22;1.27;;;;;;;22.57;54.90;101388.00;4997134;28;20053;-81
2022/09/10 15:07:03;;;;;;;3.35;1.40;;;;;;;22.58;54.77;101389.75;4995057;28;20065;-81
2022/09/10 15:09:30;;;;;;;2.67;1.40;;;;;;;22.61;55.10;101388.81;4971702;28;20122;-80
2022/09/10 15:12:02;;;;;;;2.10;1.20;;;;;;;22.62;55.23;101394.91;4960630;28;20047;-81
2022/09/10 15:14:28;;;;;;;2.67;1.70;;;;;;;22.64;54.58;101403.59;4991698;28;20070;-80
2022/09/10 15:16:56;;;;;;;3.53;1.67;;;;;;;22.65;54.93;101406.19;4990153;28;20050;-80
2022/09/10 15:19:21;;;;;;;1.75;1.30;;;;;;;22.64;54.63;101403.59;4959551;28;20051;-80
2022/09/10 15:21:49;;;;;;;1.63;1.08;;;;;;;22.64;54.65;101408.84;4993302;28;20096;-80
2022/09/10 15:24:18;;;;;;;2.05;1.27;;;;;;;22.63;54.85;101413.25;4992762;28;20118;-80
2022/09/10 15:26:44;;;;;;;2.53;1.38;;;;;;;22.62;55.14;101423.75;4977905;28;21948;-80
2022/09/10 15:29:12;;;;;;;2.15;1.40;;;;;;;22.63;54.85;101422.88;4994229;28;20419;-81
2022/09/10 15:31:38;;;;;;;2.70;1.42;;;;;;;22.63;54.88;101425.50;4984977;28;20410;-80
2022/09/10 15:34:07;;;;;;;2.80;1.30;;;;;;;22.60;54.80;101423.78;4957707;28;20050;-81
2022/09/10 15:36:35;;;;;;;2.22;1.42;;;;;;;22.61;54.65;101422.03;4987599;28;20046;-80
2022/09/10 15:39:02;;;;;;;1.75;1.30;;;;;;;22.63;54.59;101421.09;5002255;28;20050;-80
2022/09/10 15:41:28;;;;;;;3.30;1.40;;;;;;;22.64;54.93;101417.56;4982070;28;20042;-80
2022/09/10 15:43:54;;;;;;;2.40;1.40;;;;;;;22.63;54.78;101423.72;4985974;28;20051;-80
2022/09/10 15:46:23;;;;;;;2.05;1.20;;;;;;;22.63;54.90;101428.97;4971363;28;20054;-80
2022/09/10 15:48:48;;;;;;;2.17;1.30;;;;;;;22.63;54.98;101430.75;4997723;28;20097;-80
2022/09/10 15:51:21;;;;;;;4.30;1.33;;;;;;;22.63;54.57;101431.59;4966673;28;20050;-80
2022/09/10 15:53:49;;;;;;;3.70;1.60;;;;;;;22.62;54.73;101432.47;4981113;28;20055;-80
2022/09/10 15:56:15;;;;;;;3.13;1.30;;;;;;;22.66;54.93;101431.53;4975728;28;20050;-81
2022/09/10 15:58:46;;;;;;;3.25;1.30;;;;;;;22.65;54.74;101435.06;4973583;28;20054;-81
2022/09/10 16:01:12;;;;;;;2.20;1.45;;;;;;;22.65;54.75;101428.97;4977062;28;20093;-80
2022/09/10 16:03:49;;;;;;;2.50;1.38;;;;;;;22.66;54.47;101436.78;4970067;28;20058;-80
2022/09/10 16:06:15;;;;;;;1.90;1.30;;;;;;;22.67;54.49;101433.28;5000352;28;20061;-80
2022/09/10 16:08:40;;;;;;;2.33;1.45;;;;;;;22.68;54.66;101437.59;4965732;28;20050;-81
2022/09/10 16:11:10;;;;;;;2.35;1.40;;;;;;;22.70;54.16;101446.31;4980637;28;20046;-81
2022/09/10 16:13:39;;;;;;;2.65;1.63;;;;;;;22.68;54.10;101445.47;5001920;28;20078;-81
2022/09/10 16:16:07;;;;;;;1.85;1.20;;;;;;;22.70;54.45;101446.31;4984516;28;20050;-80
2022/09/10 16:18:33;;;;;;;3.05;1.40;;;;;;;22.72;53.99;101448.91;4983563;28;20038;-81
2022/09/10 16:21:11;;;;;;;2.00;1.30;;;;;;;22.71;54.09;101453.31;5009235;28;20114;-80
2022/09/10 16:23:38;;;;;;;4.40;1.27;;;;;;;22.72;53.96;101455.00;5007375;28;20109;-81
2022/09/10 16:26:04;;;;;;;2.60;1.40;;;;;;;22.72;54.22;101456.78;4991779;28;20127;-81
2022/09/10 16:28:30;;;;;;;2.47;1.30;;;;;;;22.74;53.83;101465.47;4984498;28;20118;-81